sensor_id;sensor_type;location;lat;lon;timestamp;P1;durP1;ratioP1;P2;durP2;ratioP2
11612;SDS011;5862;48.718;9.108;2022-08-07T00:02:11;0.63;;;0.40;;
11612;SDS011;5862;48.718;9.108;2022-08-07T00:04:59;0.85;;;0.63;;
11612;SDS011;5862;48.718;9.108;2022-08-07T00:07:29;1.02;;;0.75;;
11612;SDS011;5862;48.718;9.108;2022-08-07T00:10:06;0.57;;;0.57;;
11612;SDS011;5862;48.718;9.108;2022-08-07T00:12:58;0.80;;;0.63;;
11612;SDS011;5862;48.718;9.108;2022-08-07T00:15:35;0.63;;;0.30;;
11612;SDS011;5862;48.718;9.108;2022-08-07T00:18:16;0.70;;;0.40;;
11612;SDS011;5862;48.718;9.108;2022-08-07T00:20:50;1.40;;;0.60;;
11612;SDS011;5862;48.718;9.108;2022-08-07T00:23:21;2.00;;;0.70;;
11612;SDS011;5862;48.718;9.108;2022-08-07T00:25:48;1.63;;;0.50;;
11612;SDS011;5862;48.718;9.108;2022-08-07T00:28:29;1.27;;;0.30;;
11612;SDS011;5862;48.718;9.108;2022-08-07T00:31:00;0.90;;;0.47;;
11612;SDS011;5862;48.718;9.108;2022-08-07T00:33:31;0.68;;;0.57;;
11612;SDS011;5862;48.718;9.108;2022-08-07T00:36:00;0.73;;;0.50;;
11612;SDS011;5862;48.718;9.108;2022-08-07T00:38:27;0.95;;;0.65;;
11612;SDS011;5862;48.718;9.108;2022-08-07T00:40:58;1.20;;;0.70;;
11612;SDS011;5862;48.718;9.108;2022-08-07T00:43:25;0.50;;;0.50;;
11612;SDS011;5862;48.718;9.108;2022-08-07T00:46:14;2.25;;;0.80;;
11612;SDS011;5862;48.718;9.108;2022-08-07T00:48:41;0.65;;;0.65;;
11612;SDS011;5862;48.718;9.108;2022-08-07T00:51:16;0.70;;;0.70;;
11612;SDS011;5862;48.718;9.108;2022-08-07T00:53:43;1.42;;;0.85;;
11612;SDS011;5862;48.718;9.108;2022-08-07T00:56:20;1.27;;;1.00;;
11612;SDS011;5862;48.718;9.108;2022-08-07T00:58:47;2.63;;;1.10;;
11612;SDS011;5862;48.718;9.108;2022-08-07T01:01:15;0.95;;;0.85;;
11612;SDS011;5862;48.718;9.108;2022-08-07T01:03:49;1.02;;;0.82;;
11612;SDS011;5862;48.718;9.108;2022-08-07T01:06:25;1.83;;;0.90;;
11612;SDS011;5862;48.718;9.108;2022-08-07T01:08:52;1.02;;;0.80;;
11612;SDS011;5862;48.718;9.108;2022-08-07T01:11:24;1.25;;;0.98;;
11612;SDS011;5862;48.718;9.108;2022-08-07T01:14:13;1.00;;;0.90;;
11612;SDS011;5862;48.718;9.108;2022-08-07T01:16:42;0.98;;;0.80;;
11612;SDS011;5862;48.718;9.108;2022-08-07T01:19:13;2.30;;;0.80;;
11612;SDS011;5862;48.718;9.108;2022-08-07T01:21:45;1.30;;;0.98;;
11612;SDS011;5862;48.718;9.108;2022-08-07T01:24:14;0.82;;;0.80;;
11612;SDS011;5862;48.718;9.108;2022-08-07T01:26:47;1.00;;;0.90;;
11612;SDS011;5862;48.718;9.108;2022-08-07T01:29:18;1.13;;;0.90;;
11612;SDS011;5862;48.718;9.108;2022-08-07T01:31:48;1.05;;;0.90;;
11612;SDS011;5862;48.718;9.108;2022-08-07T01:34:17;1.65;;;1.02;;
11612;SDS011;5862;48.718;9.108;2022-08-07T01:36:49;1.10;;;0.70;;
11612;SDS011;5862;48.718;9.108;2022-08-07T01:39:26;1.00;;;0.80;;
11612;SDS011;5862;48.718;9.108;2022-08-07T01:42:14;1.43;;;0.97;;
11612;SDS011;5862;48.718;9.108;2022-08-07T01:45:04;1.15;;;1.02;;
11612;SDS011;5862;48.718;9.108;2022-08-07T01:47:41;1.07;;;1.00;;
11612;SDS011;5862;48.718;9.108;2022-08-07T01:50:28;0.90;;;0.75;;
11612;SDS011;5862;48.718;9.108;2022-08-07T01:52:58;1.93;;;1.03;;
11612;SDS011;5862;48.718;9.108;2022-08-07T01:55:26;1.35;;;0.85;;
11612;SDS011;5862;48.718;9.108;2022-08-07T01:57:54;1.17;;;0.70;;
11612;SDS011;5862;48.718;9.108;2022-08-07T02:00:32;0.90;;;0.77;;
11612;SDS011;5862;48.718;9.108;2022-08-07T02:03:08;1.00;;;0.90;;
11612;SDS011;5862;48.718;9.108;2022-08-07T02:05:57;1.77;;;1.00;;
11612;SDS011;5862;48.718;9.108;2022-08-07T02:08:50;1.37;;;0.70;;
11612;SDS011;5862;48.718;9.108;2022-08-07T02:11:19;0.90;;;0.70;;
11612;SDS011;5862;48.718;9.108;2022-08-07T02:14:06;1.10;;;0.83;;
11612;SDS011;5862;48.718;9.108;2022-08-07T02:16:33;1.53;;;0.80;;
11612;SDS011;5862;48.718;9.108;2022-08-07T02:19:05;2.10;;;1.10;;
11612;SDS011;5862;48.718;9.108;2022-08-07T02:21:58;1.50;;;1.00;;
11612;SDS011;5862;48.718;9.108;2022-08-07T02:24:27;1.27;;;0.90;;
11612;SDS011;5862;48.718;9.108;2022-08-07T02:26:55;1.13;;;0.80;;
11612;SDS011;5862;48.718;9.108;2022-08-07T02:29:26;1.10;;;0.77;;
11612;SDS011;5862;48.718;9.108;2022-08-07T02:31:55;0.85;;;0.77;;
11612;SDS011;5862;48.718;9.108;2022-08-07T02:34:24;1.37;;;0.90;;
11612;SDS011;5862;48.718;9.108;2022-08-07T02:36:55;2.07;;;0.70;;
11612;SDS011;5862;48.718;9.108;2022-08-07T02:39:24;0.93;;;0.80;;
11612;SDS011;5862;48.718;9.108;2022-08-07T02:42:11;1.52;;;1.10;;
11612;SDS011;5862;48.718;9.108;2022-08-07T02:44:42;0.70;;;0.60;;
11612;SDS011;5862;48.718;9.108;2022-08-07T02:47:13;0.97;;;0.83;;
11612;SDS011;5862;48.718;9.108;2022-08-07T02:49:48;2.07;;;0.60;;
11612;SDS011;5862;48.718;9.108;2022-08-07T02:53:10;1.07;;;0.70;;
11612;SDS011;5862;48.718;9.108;2022-08-07T02:55:29;0.93;;;0.73;;
11612;SDS011;5862;48.718;9.108;2022-08-07T02:58:17;0.80;;;0.60;;
11612;SDS011;5862;48.718;9.108;2022-08-07T03:00:53;1.37;;;0.80;;
11612;SDS011;5862;48.718;9.108;2022-08-07T03:03:22;0.70;;;0.70;;
11612;SDS011;5862;48.718;9.108;2022-08-07T03:05:54;0.57;;;0.57;;
11612;SDS011;5862;48.718;9.108;2022-08-07T03:08:22;0.80;;;0.60;;
11612;SDS011;5862;48.718;9.108;2022-08-07T03:10:56;1.87;;;1.00;;
11612;SDS011;5862;48.718;9.108;2022-08-07T03:13:24;1.10;;;0.83;;
11612;SDS011;5862;48.718;9.108;2022-08-07T03:15:53;1.33;;;0.90;;
11612;SDS011;5862;48.718;9.108;2022-08-07T03:18:24;0.95;;;0.55;;
11612;SDS011;5862;48.718;9.108;2022-08-07T03:21:02;1.27;;;0.77;;
11612;SDS011;5862;48.718;9.108;2022-08-07T03:23:34;0.60;;;0.60;;
11612;SDS011;5862;48.718;9.108;2022-08-07T03:26:23;0.87;;;0.80;;
11612;SDS011;5862;48.718;9.108;2022-08-07T03:28:53;1.73;;;0.80;;
11612;SDS011;5862;48.718;9.108;2022-08-07T03:31:23;1.07;;;0.80;;
11612;SDS011;5862;48.718;9.108;2022-08-07T03:34:11;1.00;;;0.80;;
11612;SDS011;5862;48.718;9.108;2022-08-07T03:36:47;0.90;;;0.80;;
11612;SDS011;5862;48.718;9.108;2022-08-07T03:39:16;0.70;;;0.70;;
11612;SDS011;5862;48.718;9.108;2022-08-07T03:42:03;2.17;;;0.70;;
11612;SDS011;5862;48.718;9.108;2022-08-07T03:44:31;1.00;;;0.90;;
11612;SDS011;5862;48.718;9.108;2022-08-07T03:47:02;0.67;;;0.67;;
11612;SDS011;5862;48.718;9.108;2022-08-07T03:49:39;0.67;;;0.67;;
11612;SDS011;5862;48.718;9.108;2022-08-07T03:52:15;0.77;;;0.70;;
11612;SDS011;5862;48.718;9.108;2022-08-07T03:54:51;1.17;;;1.00;;
11612;SDS011;5862;48.718;9.108;2022-08-07T03:57:31;0.90;;;0.80;;
11612;SDS011;5862;48.718;9.108;2022-08-07T04:00:20;0.97;;;0.87;;
11612;SDS011;5862;48.718;9.108;2022-08-07T04:02:58;0.57;;;0.57;;
11612;SDS011;5862;48.718;9.108;2022-08-07T04:05:29;1.43;;;0.90;;
11612;SDS011;5862;48.718;9.108;2022-08-07T04:08:10;1.00;;;0.70;;
11612;SDS011;5862;48.718;9.108;2022-08-07T04:10:41;1.60;;;1.00;;
11612;SDS011;5862;48.718;9.108;2022-08-07T04:13:33;0.70;;;0.60;;
11612;SDS011;5862;48.718;9.108;2022-08-07T04:16:22;1.33;;;0.80;;
11612;SDS011;5862;48.718;9.108;2022-08-07T04:19:03;1.10;;;0.90;;
11612;SDS011;5862;48.718;9.108;2022-08-07T04:21:40;0.70;;;0.67;;
11612;SDS011;5862;48.718;9.108;2022-08-07T04:24:26;0.70;;;0.70;;
11612;SDS011;5862;48.718;9.108;2022-08-07T04:26:59;1.00;;;0.80;;
11612;SDS011;5862;48.718;9.108;2022-08-07T04:29:29;1.00;;;0.70;;
11612;SDS011;5862;48.718;9.108;2022-08-07T04:32:18;0.97;;;0.70;;
11612;SDS011;5862;48.718;9.108;2022-08-07T04:35:00;0.93;;;0.80;;
11612;SDS011;5862;48.718;9.108;2022-08-07T04:37:31;0.70;;;0.70;;
11612;SDS011;5862;48.718;9.108;2022-08-07T04:40:17;2.27;;;1.00;;
11612;SDS011;5862;48.718;9.108;2022-08-07T04:42:44;2.40;;;0.90;;
11612;SDS011;5862;48.718;9.108;2022-08-07T04:45:19;0.60;;;0.60;;
11612;SDS011;5862;48.718;9.108;2022-08-07T04:48:08;0.40;;;0.40;;
11612;SDS011;5862;48.718;9.108;2022-08-07T04:51:04;0.70;;;0.70;;
11612;SDS011;5862;48.718;9.108;2022-08-07T04:53:47;0.50;;;0.50;;
11612;SDS011;5862;48.718;9.108;2022-08-07T04:56:43;0.50;;;0.50;;
11612;SDS011;5862;48.718;9.108;2022-08-07T05:02:33;1.13;;;0.60;;
11612;SDS011;5862;48.718;9.108;2022-08-07T05:05:09;0.60;;;0.60;;
11612;SDS011;5862;48.718;9.108;2022-08-07T05:08:09;1.30;;;0.80;;
11612;SDS011;5862;48.718;9.108;2022-08-07T05:10:40;0.90;;;0.60;;
11612;SDS011;5862;48.718;9.108;2022-08-07T05:13:31;2.07;;;0.80;;
11612;SDS011;5862;48.718;9.108;2022-08-07T05:16:22;1.17;;;0.80;;
11612;SDS011;5862;48.718;9.108;2022-08-07T05:18:55;0.60;;;0.60;;
11612;SDS011;5862;48.718;9.108;2022-08-07T05:21:26;0.70;;;0.60;;
11612;SDS011;5862;48.718;9.108;2022-08-07T05:24:15;0.93;;;0.80;;
11612;SDS011;5862;48.718;9.108;2022-08-07T05:26:43;1.97;;;1.00;;
11612;SDS011;5862;48.718;9.108;2022-08-07T05:29:14;1.90;;;0.73;;
11612;SDS011;5862;48.718;9.108;2022-08-07T05:31:45;1.85;;;1.05;;
11612;SDS011;5862;48.718;9.108;2022-08-07T05:34:18;1.40;;;1.13;;
11612;SDS011;5862;48.718;9.108;2022-08-07T05:36:52;1.60;;;1.50;;
11612;SDS011;5862;48.718;9.108;2022-08-07T05:39:21;2.42;;;1.20;;
11612;SDS011;5862;48.718;9.108;2022-08-07T05:42:08;1.65;;;1.13;;
11612;SDS011;5862;48.718;9.108;2022-08-07T05:44:38;1.35;;;1.08;;
11612;SDS011;5862;48.718;9.108;2022-08-07T05:47:17;2.22;;;1.08;;
11612;SDS011;5862;48.718;9.108;2022-08-07T05:49:51;1.15;;;1.02;;
11612;SDS011;5862;48.718;9.108;2022-08-07T05:52:19;1.30;;;1.20;;
11612;SDS011;5862;48.718;9.108;2022-08-07T05:54:58;2.15;;;1.55;;
11612;SDS011;5862;48.718;9.108;2022-08-07T05:57:35;1.90;;;1.70;;
11612;SDS011;5862;48.718;9.108;2022-08-07T06:00:03;2.28;;;2.00;;
11612;SDS011;5862;48.718;9.108;2022-08-07T06:02:41;4.50;;;1.73;;
11612;SDS011;5862;48.718;9.108;2022-08-07T06:05:12;1.88;;;1.77;;
11612;SDS011;5862;48.718;9.108;2022-08-07T06:07:41;2.38;;;2.17;;
11612;SDS011;5862;48.718;9.108;2022-08-07T06:10:30;2.47;;;2.15;;
11612;SDS011;5862;48.718;9.108;2022-08-07T06:13:02;1.92;;;1.73;;
11612;SDS011;5862;48.718;9.108;2022-08-07T06:15:39;2.90;;;2.65;;
11612;SDS011;5862;48.718;9.108;2022-08-07T06:18:08;2.42;;;2.22;;
11612;SDS011;5862;48.718;9.108;2022-08-07T06:20:39;3.65;;;2.63;;
11612;SDS011;5862;48.718;9.108;2022-08-07T06:23:26;2.70;;;2.50;;
11612;SDS011;5862;48.718;9.108;2022-08-07T06:26:13;4.15;;;2.83;;
11612;SDS011;5862;48.718;9.108;2022-08-07T06:28:47;2.80;;;2.60;;
11612;SDS011;5862;48.718;9.108;2022-08-07T06:31:20;3.67;;;2.47;;
11612;SDS011;5862;48.718;9.108;2022-08-07T06:34:03;2.90;;;2.60;;
11612;SDS011;5862;48.718;9.108;2022-08-07T06:36:33;2.50;;;2.30;;
11612;SDS011;5862;48.718;9.108;2022-08-07T06:39:00;3.20;;;2.90;;
11612;SDS011;5862;48.718;9.108;2022-08-07T06:41:53;3.67;;;2.50;;
11612;SDS011;5862;48.718;9.108;2022-08-07T06:44:30;3.13;;;2.83;;
11612;SDS011;5862;48.718;9.108;2022-08-07T06:47:04;4.63;;;3.45;;
11612;SDS011;5862;48.718;9.108;2022-08-07T06:49:40;3.33;;;2.78;;
11612;SDS011;5862;48.718;9.108;2022-08-07T06:52:24;4.25;;;2.42;;
11612;SDS011;5862;48.718;9.108;2022-08-07T06:55:03;5.55;;;2.75;;
11612;SDS011;5862;48.718;9.108;2022-08-07T06:57:52;2.17;;;1.95;;
11612;SDS011;5862;48.718;9.108;2022-08-07T07:00:26;3.35;;;2.10;;
11612;SDS011;5862;48.718;9.108;2022-08-07T07:02:53;3.88;;;2.33;;
11612;SDS011;5862;48.718;9.108;2022-08-07T07:05:33;1.50;;;1.40;;
11612;SDS011;5862;48.718;9.108;2022-08-07T07:08:26;1.90;;;1.65;;
11612;SDS011;5862;48.718;9.108;2022-08-07T07:10:53;1.75;;;1.45;;
11612;SDS011;5862;48.718;9.108;2022-08-07T07:13:28;2.17;;;1.70;;
11612;SDS011;5862;48.718;9.108;2022-08-07T07:16:21;1.77;;;1.52;;
11612;SDS011;5862;48.718;9.108;2022-08-07T07:18:56;1.63;;;1.50;;
11612;SDS011;5862;48.718;9.108;2022-08-07T07:21:31;1.55;;;1.45;;
11612;SDS011;5862;48.718;9.108;2022-08-07T07:24:23;1.42;;;1.33;;
11612;SDS011;5862;48.718;9.108;2022-08-07T07:26:57;1.73;;;1.63;;
11612;SDS011;5862;48.718;9.108;2022-08-07T07:29:24;1.45;;;1.10;;
11612;SDS011;5862;48.718;9.108;2022-08-07T07:32:15;2.75;;;1.45;;
11612;SDS011;5862;48.718;9.108;2022-08-07T07:34:45;5.05;;;1.58;;
11612;SDS011;5862;48.718;9.108;2022-08-07T07:37:13;2.00;;;1.10;;
11612;SDS011;5862;48.718;9.108;2022-08-07T07:40:02;1.77;;;1.35;;
11612;SDS011;5862;48.718;9.108;2022-08-07T07:42:40;1.95;;;1.20;;
11612;SDS011;5862;48.718;9.108;2022-08-07T07:45:13;2.20;;;1.25;;
11612;SDS011;5862;48.718;9.108;2022-08-07T07:47:41;1.08;;;0.98;;
11612;SDS011;5862;48.718;9.108;2022-08-07T07:50:19;0.80;;;0.77;;
11612;SDS011;5862;48.718;9.108;2022-08-07T07:53:04;1.17;;;1.00;;
11612;SDS011;5862;48.718;9.108;2022-08-07T07:55:48;0.95;;;0.95;;
11612;SDS011;5862;48.718;9.108;2022-08-07T07:58:23;1.00;;;0.90;;
11612;SDS011;5862;48.718;9.108;2022-08-07T08:01:06;1.08;;;0.95;;
11612;SDS011;5862;48.718;9.108;2022-08-07T08:03:54;1.13;;;1.02;;
11612;SDS011;5862;48.718;9.108;2022-08-07T08:06:36;1.30;;;1.00;;
11612;SDS011;5862;48.718;9.108;2022-08-07T08:09:17;1.08;;;0.90;;
11612;SDS011;5862;48.718;9.108;2022-08-07T08:11:48;1.58;;;1.00;;
11612;SDS011;5862;48.718;9.108;2022-08-07T08:14:32;0.85;;;0.82;;
11612;SDS011;5862;48.718;9.108;2022-08-07T08:17:02;2.25;;;0.70;;
11612;SDS011;5862;48.718;9.108;2022-08-07T08:19:50;1.00;;;0.90;;
11612;SDS011;5862;48.718;9.108;2022-08-07T08:22:38;0.80;;;0.75;;
11612;SDS011;5862;48.718;9.108;2022-08-07T08:25:25;1.10;;;0.70;;
11612;SDS011;5862;48.718;9.108;2022-08-07T08:28:16;1.13;;;1.00;;
11612;SDS011;5862;48.718;9.108;2022-08-07T08:31:02;1.15;;;0.63;;
11612;SDS011;5862;48.718;9.108;2022-08-07T08:33:40;0.98;;;0.90;;
11612;SDS011;5862;48.718;9.108;2022-08-07T08:36:14;0.80;;;0.70;;
11612;SDS011;5862;48.718;9.108;2022-08-07T08:38:42;1.50;;;0.77;;
11612;SDS011;5862;48.718;9.108;2022-08-07T08:41:12;1.42;;;0.93;;
11612;SDS011;5862;48.718;9.108;2022-08-07T08:49:41;0.68;;;0.68;;
11612;SDS011;5862;48.718;9.108;2022-08-07T08:55:04;0.70;;;0.63;;
11612;SDS011;5862;48.718;9.108;2022-08-07T09:00:07;0.77;;;0.77;;
11612;SDS011;5862;48.718;9.108;2022-08-07T09:11:04;1.25;;;1.00;;
11612;SDS011;5862;48.718;9.108;2022-08-07T09:14:02;0.95;;;0.90;;
11612;SDS011;5862;48.718;9.108;2022-08-07T09:16:47;1.02;;;0.80;;
11612;SDS011;5862;48.718;9.108;2022-08-07T09:22:25;0.88;;;0.88;;
11612;SDS011;5862;48.718;9.108;2022-08-07T09:28:41;2.10;;;0.80;;
11612;SDS011;5862;48.718;9.108;2022-08-07T09:31:32;0.60;;;0.60;;
11612;SDS011;5862;48.718;9.108;2022-08-07T09:34:19;0.60;;;0.60;;
11612;SDS011;5862;48.718;9.108;2022-08-07T09:39:51;2.53;;;0.90;;
11612;SDS011;5862;48.718;9.108;2022-08-07T09:45:17;0.80;;;0.70;;
11612;SDS011;5862;48.718;9.108;2022-08-07T09:54:19;0.50;;;0.50;;
11612;SDS011;5862;48.718;9.108;2022-08-07T09:59:52;1.23;;;0.60;;
11612;SDS011;5862;48.718;9.108;2022-08-07T10:02:38;0.85;;;0.55;;
11612;SDS011;5862;48.718;9.108;2022-08-07T10:21:55;1.25;;;0.88;;
11612;SDS011;5862;48.718;9.108;2022-08-07T10:24:45;1.25;;;0.70;;
11612;SDS011;5862;48.718;9.108;2022-08-07T10:30:19;0.73;;;0.40;;
11612;SDS011;5862;48.718;9.108;2022-08-07T10:32:55;1.70;;;0.70;;
11612;SDS011;5862;48.718;9.108;2022-08-07T10:44:33;1.00;;;0.75;;
11612;SDS011;5862;48.718;9.108;2022-08-07T10:53:09;0.40;;;0.40;;
11612;SDS011;5862;48.718;9.108;2022-08-07T10:56:06;1.17;;;0.52;;
11612;SDS011;5862;48.718;9.108;2022-08-07T11:01:30;0.95;;;0.60;;
11612;SDS011;5862;48.718;9.108;2022-08-07T11:10:24;0.75;;;0.55;;
11612;SDS011;5862;48.718;9.108;2022-08-07T11:19:10;1.88;;;0.73;;
11612;SDS011;5862;48.718;9.108;2022-08-07T11:22:01;0.90;;;0.60;;
11612;SDS011;5862;48.718;9.108;2022-08-07T11:24:49;2.90;;;0.63;;
11612;SDS011;5862;48.718;9.108;2022-08-07T11:30:15;1.13;;;0.60;;
11612;SDS011;5862;48.718;9.108;2022-08-07T11:33:05;0.75;;;0.55;;
11612;SDS011;5862;48.718;9.108;2022-08-07T11:36:15;1.08;;;0.52;;
11612;SDS011;5862;48.718;9.108;2022-08-07T11:39:14;0.90;;;0.77;;
11612;SDS011;5862;48.718;9.108;2022-08-07T11:41:48;3.47;;;1.02;;
11612;SDS011;5862;48.718;9.108;2022-08-07T11:47:33;1.92;;;0.60;;
11612;SDS011;5862;48.718;9.108;2022-08-07T11:50:45;0.70;;;0.70;;
11612;SDS011;5862;48.718;9.108;2022-08-07T12:16:21;0.70;;;0.70;;
11612;SDS011;5862;48.718;9.108;2022-08-07T12:25:02;1.58;;;0.68;;
11612;SDS011;5862;48.718;9.108;2022-08-07T12:31:26;0.70;;;0.70;;
11612;SDS011;5862;48.718;9.108;2022-08-07T12:34:24;0.70;;;0.68;;
11612;SDS011;5862;48.718;9.108;2022-08-07T12:36:52;0.98;;;0.70;;
11612;SDS011;5862;48.718;9.108;2022-08-07T12:39:23;0.93;;;0.77;;
11612;SDS011;5862;48.718;9.108;2022-08-07T12:42:13;1.80;;;0.82;;
11612;SDS011;5862;48.718;9.108;2022-08-07T12:44:53;0.90;;;0.60;;
11612;SDS011;5862;48.718;9.108;2022-08-07T12:49:58;0.70;;;0.70;;
11612;SDS011;5862;48.718;9.108;2022-08-07T12:55:03;2.47;;;0.85;;
11612;SDS011;5862;48.718;9.108;2022-08-07T12:57:41;1.75;;;0.63;;
11612;SDS011;5862;48.718;9.108;2022-08-07T13:00:37;1.05;;;0.80;;
11612;SDS011;5862;48.718;9.108;2022-08-07T13:03:38;1.20;;;0.80;;
11612;SDS011;5862;48.718;9.108;2022-08-07T13:09:39;1.02;;;0.80;;
11612;SDS011;5862;48.718;9.108;2022-08-07T13:12:53;0.60;;;0.60;;
11612;SDS011;5862;48.718;9.108;2022-08-07T13:15:35;1.00;;;0.88;;
11612;SDS011;5862;48.718;9.108;2022-08-07T13:18:20;1.27;;;1.00;;
11612;SDS011;5862;48.718;9.108;2022-08-07T13:24:17;1.15;;;0.60;;
11612;SDS011;5862;48.718;9.108;2022-08-07T13:30:28;0.98;;;0.80;;
11612;SDS011;5862;48.718;9.108;2022-08-07T13:36:25;0.90;;;0.80;;
11612;SDS011;5862;48.718;9.108;2022-08-07T13:42:12;1.63;;;0.70;;
11612;SDS011;5862;48.718;9.108;2022-08-07T13:44:46;0.70;;;0.70;;
11612;SDS011;5862;48.718;9.108;2022-08-07T13:47:36;0.70;;;0.70;;
11612;SDS011;5862;48.718;9.108;2022-08-07T13:50:24;0.95;;;0.80;;
11612;SDS011;5862;48.718;9.108;2022-08-07T13:53:01;0.85;;;0.80;;
11612;SDS011;5862;48.718;9.108;2022-08-07T13:55:30;0.80;;;0.80;;
11612;SDS011;5862;48.718;9.108;2022-08-07T13:58:05;1.35;;;0.90;;
11612;SDS011;5862;48.718;9.108;2022-08-07T14:00:57;0.70;;;0.70;;
11612;SDS011;5862;48.718;9.108;2022-08-07T14:03:37;0.90;;;0.70;;
11612;SDS011;5862;48.718;9.108;2022-08-07T14:06:30;0.82;;;0.82;;
11612;SDS011;5862;48.718;9.108;2022-08-07T14:08:58;0.80;;;0.80;;
11612;SDS011;5862;48.718;9.108;2022-08-07T14:11:30;0.60;;;0.60;;
11612;SDS011;5862;48.718;9.108;2022-08-07T14:14:21;0.70;;;0.70;;
11612;SDS011;5862;48.718;9.108;2022-08-07T14:16:59;1.45;;;1.00;;
11612;SDS011;5862;48.718;9.108;2022-08-07T14:19:48;1.40;;;0.90;;
11612;SDS011;5862;48.718;9.108;2022-08-07T14:22:41;0.68;;;0.68;;
11612;SDS011;5862;48.718;9.108;2022-08-07T14:25:14;0.95;;;0.70;;
11612;SDS011;5862;48.718;9.108;2022-08-07T14:27:48;0.50;;;0.50;;
11612;SDS011;5862;48.718;9.108;2022-08-07T14:30:36;1.75;;;0.70;;
11612;SDS011;5862;48.718;9.108;2022-08-07T14:33:06;0.95;;;0.80;;
11612;SDS011;5862;48.718;9.108;2022-08-07T14:35:35;1.02;;;0.93;;
11612;SDS011;5862;48.718;9.108;2022-08-07T14:38:13;0.75;;;0.63;;
11612;SDS011;5862;48.718;9.108;2022-08-07T14:40:57;0.80;;;0.80;;
11612;SDS011;5862;48.718;9.108;2022-08-07T14:43:29;0.98;;;0.85;;
11612;SDS011;5862;48.718;9.108;2022-08-07T14:46:19;0.90;;;0.90;;
11612;SDS011;5862;48.718;9.108;2022-08-07T14:48:57;2.70;;;0.90;;
11612;SDS011;5862;48.718;9.108;2022-08-07T14:51:47;2.75;;;0.82;;
11612;SDS011;5862;48.718;9.108;2022-08-07T14:54:37;1.35;;;0.90;;
11612;SDS011;5862;48.718;9.108;2022-08-07T14:57:09;0.85;;;0.60;;
11612;SDS011;5862;48.718;9.108;2022-08-07T14:59:45;1.90;;;0.75;;
11612;SDS011;5862;48.718;9.108;2022-08-07T15:02:31;0.90;;;0.90;;
11612;SDS011;5862;48.718;9.108;2022-08-07T15:05:03;1.50;;;1.00;;
11612;SDS011;5862;48.718;9.108;2022-08-07T15:07:48;1.35;;;0.90;;
11612;SDS011;5862;48.718;9.108;2022-08-07T15:10:24;1.02;;;0.90;;
11612;SDS011;5862;48.718;9.108;2022-08-07T15:12:58;1.40;;;0.98;;
11612;SDS011;5862;48.718;9.108;2022-08-07T15:15:32;2.22;;;1.00;;
11612;SDS011;5862;48.718;9.108;2022-08-07T15:18:06;0.98;;;0.80;;
11612;SDS011;5862;48.718;9.108;2022-08-07T15:20:58;1.00;;;0.70;;
11612;SDS011;5862;48.718;9.108;2022-08-07T15:23:33;1.05;;;0.95;;
11612;SDS011;5862;48.718;9.108;2022-08-07T15:27:02;1.75;;;1.10;;
11612;SDS011;5862;48.718;9.108;2022-08-07T15:29:29;0.82;;;0.70;;
11612;SDS011;5862;48.718;9.108;2022-08-07T15:32:20;0.50;;;0.50;;
11612;SDS011;5862;48.718;9.108;2022-08-07T15:35:16;0.88;;;0.88;;
11612;SDS011;5862;48.718;9.108;2022-08-07T15:38:04;0.60;;;0.60;;
11612;SDS011;5862;48.718;9.108;2022-08-07T15:40:53;1.48;;;0.85;;
11612;SDS011;5862;48.718;9.108;2022-08-07T15:43:40;1.88;;;0.60;;
11612;SDS011;5862;48.718;9.108;2022-08-07T15:46:23;2.05;;;0.82;;
11612;SDS011;5862;48.718;9.108;2022-08-07T15:49:04;1.70;;;0.80;;
11612;SDS011;5862;48.718;9.108;2022-08-07T15:51:54;1.98;;;0.80;;
11612;SDS011;5862;48.718;9.108;2022-08-07T15:54:37;3.25;;;0.88;;
11612;SDS011;5862;48.718;9.108;2022-08-07T15:57:07;0.88;;;0.73;;
11612;SDS011;5862;48.718;9.108;2022-08-07T15:59:58;1.85;;;0.80;;
11612;SDS011;5862;48.718;9.108;2022-08-07T16:02:39;1.08;;;0.82;;
11612;SDS011;5862;48.718;9.108;2022-08-07T16:05:13;1.52;;;0.65;;
11612;SDS011;5862;48.718;9.108;2022-08-07T16:07:50;0.80;;;0.80;;
11612;SDS011;5862;48.718;9.108;2022-08-07T16:10:41;1.13;;;0.90;;
11612;SDS011;5862;48.718;9.108;2022-08-07T16:34:31;0.95;;;0.70;;
11612;SDS011;5862;48.718;9.108;2022-08-07T16:40:36;3.22;;;0.95;;
11612;SDS011;5862;48.718;9.108;2022-08-07T17:01:13;0.82;;;0.80;;
11612;SDS011;5862;48.718;9.108;2022-08-07T17:12:27;1.35;;;1.10;;
11612;SDS011;5862;48.718;9.108;2022-08-07T17:28:58;0.80;;;0.80;;
11612;SDS011;5862;48.718;9.108;2022-08-07T17:31:38;1.35;;;0.90;;
11612;SDS011;5862;48.718;9.108;2022-08-07T17:34:36;1.10;;;1.00;;
11612;SDS011;5862;48.718;9.108;2022-08-07T17:37:29;1.45;;;1.00;;
11612;SDS011;5862;48.718;9.108;2022-08-07T17:40:27;2.50;;;0.82;;
11612;SDS011;5862;48.718;9.108;2022-08-07T17:43:05;0.63;;;0.63;;
11612;SDS011;5862;48.718;9.108;2022-08-07T17:45:49;1.13;;;0.95;;
11612;SDS011;5862;48.718;9.108;2022-08-07T17:48:22;1.17;;;0.90;;
11612;SDS011;5862;48.718;9.108;2022-08-07T17:54:29;1.33;;;0.88;;
11612;SDS011;5862;48.718;9.108;2022-08-07T18:00:20;0.60;;;0.60;;
11612;SDS011;5862;48.718;9.108;2022-08-07T18:03:00;1.30;;;0.60;;
11612;SDS011;5862;48.718;9.108;2022-08-07T18:05:44;0.98;;;0.85;;
11612;SDS011;5862;48.718;9.108;2022-08-07T18:08:33;1.05;;;0.90;;
11612;SDS011;5862;48.718;9.108;2022-08-07T18:11:41;0.88;;;0.80;;
11612;SDS011;5862;48.718;9.108;2022-08-07T18:14:48;1.83;;;1.17;;
11612;SDS011;5862;48.718;9.108;2022-08-07T18:17:26;1.48;;;1.15;;
11612;SDS011;5862;48.718;9.108;2022-08-07T18:20:25;1.40;;;0.80;;
11612;SDS011;5862;48.718;9.108;2022-08-07T18:23:16;1.80;;;1.13;;
11612;SDS011;5862;48.718;9.108;2022-08-07T18:26:12;0.70;;;0.63;;
11612;SDS011;5862;48.718;9.108;2022-08-07T18:37:44;0.60;;;0.60;;
11612;SDS011;5862;48.718;9.108;2022-08-07T18:46:19;0.80;;;0.73;;
11612;SDS011;5862;48.718;9.108;2022-08-07T18:58:27;0.77;;;0.77;;
11612;SDS011;5862;48.718;9.108;2022-08-07T19:04:02;0.90;;;0.73;;
11612;SDS011;5862;48.718;9.108;2022-08-07T19:06:46;2.45;;;0.82;;
11612;SDS011;5862;48.718;9.108;2022-08-07T19:21:12;1.20;;;0.82;;
11612;SDS011;5862;48.718;9.108;2022-08-07T19:24:03;1.35;;;0.80;;
11612;SDS011;5862;48.718;9.108;2022-08-07T19:26:56;0.60;;;0.60;;
11612;SDS011;5862;48.718;9.108;2022-08-07T19:29:44;0.60;;;0.50;;
11612;SDS011;5862;48.718;9.108;2022-08-07T19:32:37;1.27;;;0.80;;
11612;SDS011;5862;48.718;9.108;2022-08-07T19:35:11;1.88;;;0.60;;
11612;SDS011;5862;48.718;9.108;2022-08-07T19:37:42;0.50;;;0.50;;
11612;SDS011;5862;48.718;9.108;2022-08-07T19:40:26;0.65;;;0.65;;
11612;SDS011;5862;48.718;9.108;2022-08-07T19:43:00;0.50;;;0.47;;
11612;SDS011;5862;48.718;9.108;2022-08-07T19:45:36;0.95;;;0.70;;
11612;SDS011;5862;48.718;9.108;2022-08-07T19:48:31;1.77;;;0.68;;
11612;SDS011;5862;48.718;9.108;2022-08-07T19:51:09;0.77;;;0.77;;
11612;SDS011;5862;48.718;9.108;2022-08-07T19:53:58;1.02;;;0.50;;
11612;SDS011;5862;48.718;9.108;2022-08-07T19:56:48;1.00;;;0.57;;
11612;SDS011;5862;48.718;9.108;2022-08-07T19:59:36;0.50;;;0.50;;
11612;SDS011;5862;48.718;9.108;2022-08-07T20:02:06;0.60;;;0.60;;
11612;SDS011;5862;48.718;9.108;2022-08-07T20:04:45;0.70;;;0.63;;
11612;SDS011;5862;48.718;9.108;2022-08-07T20:07:14;0.85;;;0.77;;
11612;SDS011;5862;48.718;9.108;2022-08-07T20:09:55;0.80;;;0.70;;
11612;SDS011;5862;48.718;9.108;2022-08-07T20:12:44;0.95;;;0.70;;
11612;SDS011;5862;48.718;9.108;2022-08-07T20:15:19;0.77;;;0.63;;
11612;SDS011;5862;48.718;9.108;2022-08-07T20:17:58;0.85;;;0.85;;
11612;SDS011;5862;48.718;9.108;2022-08-07T20:20:29;0.80;;;0.70;;
11612;SDS011;5862;48.718;9.108;2022-08-07T20:23:06;0.60;;;0.60;;
11612;SDS011;5862;48.718;9.108;2022-08-07T20:25:59;0.80;;;0.80;;
11612;SDS011;5862;48.718;9.108;2022-08-07T20:28:35;2.28;;;1.00;;
11612;SDS011;5862;48.718;9.108;2022-08-07T20:31:14;0.60;;;0.60;;
11612;SDS011;5862;48.718;9.108;2022-08-07T20:33:52;0.77;;;0.60;;
11612;SDS011;5862;48.718;9.108;2022-08-07T20:36:23;0.68;;;0.68;;
11612;SDS011;5862;48.718;9.108;2022-08-07T20:38:51;2.22;;;0.65;;
11612;SDS011;5862;48.718;9.108;2022-08-07T20:41:31;0.80;;;0.80;;